This is the latest recevied weather packets stored in our database for station/object SR9NLI. If no packets are shown the sender has not sent any weather packets the latest 1 day(s).
| Time | Temp. | Humidity | Pressure | Rain* | Wind** | Luminosity | Snow |
|---|---|---|---|---|---|---|---|
| 1777982094 | 22.22° C | 100% | 951 hPa | - | 3.13 m/s, 170° | - | - |
| 1777981970 | 22.78° C | 100% | 951.1 hPa | - | 1.79 m/s, 199° | - | - |
| 1777981910 | 22.22° C | 100% | 950.9 hPa | - | 1.34 m/s, 218° | - | - |
| 1777981848 | 22.22° C | 100% | 950.9 hPa | - | 1.34 m/s, 214° | - | - |
| 1777981725 | 22.22° C | 100% | 951.1 hPa | - | 1.34 m/s, 216° | - | - |
| 1777981602 | 22.78° C | 100% | 951 hPa | - | 1.34 m/s, 212° | - | - |
| 1777981541 | 22.78° C | 100% | 951.1 hPa | - | 1.34 m/s, 203° | - | - |
| 1777981479 | 22.78° C | 100% | 951.1 hPa | - | 1.34 m/s, 209° | - | - |
| 1777981359 | 22.78° C | 100% | 951.1 hPa | - | 1.34 m/s, 231° | - | - |
| 1777981233 | 22.78° C | 100% | 951.2 hPa | - | 1.79 m/s, 226° | - | - |
| 1777981172 | 22.78° C | 100% | 951.1 hPa | - | 1.79 m/s, 212° | - | - |
| 1777981109 | 22.78° C | 100% | 951.1 hPa | - | 2.24 m/s, 212° | - | - |
| 1777980986 | 22.78° C | 100% | 951 hPa | - | 1.79 m/s, 202° | - | - |
| 1777980863 | 23.33° C | 100% | 950.9 hPa | - | 1.79 m/s, 193° | - | - |
| 1777980802 | 23.33° C | 100% | 951.1 hPa | - | 2.24 m/s, 182° | - | - |
| 1777980740 | 23.33° C | 100% | 951 hPa | - | 1.79 m/s, 178° | - | - |
| 1777980617 | 22.78° C | 100% | 951.2 hPa | - | 1.34 m/s, 192° | - | - |
| 1777980494 | 22.78° C | 100% | 951.2 hPa | - | 1.34 m/s, 216° | - | - |
| 1777980433 | 22.78° C | 100% | 951.2 hPa | - | 1.79 m/s, 210° | - | - |
| 1777980371 | 22.78° C | 100% | 951.1 hPa | - | 2.24 m/s, 197° | - | - |
| 1777980248 | 22.78° C | 100% | 951.1 hPa | - | 2.24 m/s, 194° | - | - |
| 1777980125 | 22.78° C | 100% | 951.2 hPa | - | 1.34 m/s, 203° | - | - |
| 1777980063 | 22.78° C | 100% | 951.2 hPa | - | 1.34 m/s, 213° | - | - |
| 1777980001 | 22.78° C | 100% | 951.3 hPa | - | 1.34 m/s, 216° | - | - |
| 1777979878 | 22.78° C | 100% | 951.3 hPa | - | 2.24 m/s, 188° | - | - |
* Rain since midnight (hover to see other rain measurements)
** Current wind speed in m/s (hover to see current wind gust speed)